메인 페이지
METAR-TAF:

METAR-TAF

공항 :

스리나가르, 인도

위도: 33-59-14N, 경도: 074-46-27E, 고도: 1655m

METAR: 누락

시각: 22:57 (17:27 UTC)

예보

예보는 7 시간 57분 전, 09:30시(UTC)에 발표되었습니다.
예보 대상 시간: 14일 12시부터 14일 24시까지 (UTC)
여러 방향의 바람 2kt
시정: 1200m
고도 1500ft 상공 구름 보통
고도 2500ft 상공 구름 보통
고도 9000ft 상공 구름 많음
박무
전환 중
14일 22시부터 14일 23시까지 (UTC)
시정: 0800m
안개

TAF: VISR 140930Z 1412/1424 VRB02KT 1200 BR SCT015 SCT025 BKN090 BECMG 1422/1423 0800 FG

4,000개 이상의 공항 관측 자료 및 예보 (METAR 및 TAF 보고).

지도상에서 검색 가능한 기상관측소가 노란 점과 빨간 점으로 표시되어 있습니다.

기상관측소 명을 보려면 표시 위로 마우스를 이동하세요.

날씨 관측과 예보를 보려면 클릭하세요.

지도 변경 : 확대하려면 엑스 표시가 있는 녹색 버튼, 축소하려면 빼기 표시가 있는 녹색 버튼, 다음 페이지의 지도를 보려면 녹색 화살표를 클릭하세요.


METAR-TAF: